sensor_id;sensor_type;location;lat;lon;timestamp;temperature;humidity
21666;DHT22;10994;45.486;9.190;2022-07-24T00:00:40;29.30;99.90
21666;DHT22;10994;45.486;9.190;2022-07-24T00:03:06;29.30;99.90
21666;DHT22;10994;45.486;9.190;2022-07-24T00:05:32;29.30;99.90
21666;DHT22;10994;45.486;9.190;2022-07-24T00:07:58;29.20;99.90
21666;DHT22;10994;45.486;9.190;2022-07-24T00:10:24;29.20;99.90
21666;DHT22;10994;45.486;9.190;2022-07-24T00:12:50;29.00;99.90
21666;DHT22;10994;45.486;9.190;2022-07-24T00:15:16;29.00;99.90
21666;DHT22;10994;45.486;9.190;2022-07-24T00:17:42;29.10;99.90
21666;DHT22;10994;45.486;9.190;2022-07-24T00:20:08;29.20;99.90
21666;DHT22;10994;45.486;9.190;2022-07-24T00:22:34;29.20;99.90
21666;DHT22;10994;45.486;9.190;2022-07-24T00:25:00;29.20;99.90
21666;DHT22;10994;45.486;9.190;2022-07-24T00:27:26;29.20;99.90
21666;DHT22;10994;45.486;9.190;2022-07-24T00:29:52;29.10;99.90
21666;DHT22;10994;45.486;9.190;2022-07-24T00:32:17;29.10;99.90
21666;DHT22;10994;45.486;9.190;2022-07-24T00:34:43;29.10;99.90
21666;DHT22;10994;45.486;9.190;2022-07-24T00:37:09;29.10;99.90
21666;DHT22;10994;45.486;9.190;2022-07-24T00:39:35;29.10;99.90
21666;DHT22;10994;45.486;9.190;2022-07-24T00:42:00;29.10;99.90
21666;DHT22;10994;45.486;9.190;2022-07-24T00:44:26;29.10;99.90
21666;DHT22;10994;45.486;9.190;2022-07-24T00:46:52;29.20;99.90
21666;DHT22;10994;45.486;9.190;2022-07-24T00:49:19;29.20;99.90
21666;DHT22;10994;45.486;9.190;2022-07-24T00:51:48;29.30;99.90
21666;DHT22;10994;45.486;9.190;2022-07-24T00:54:15;29.20;99.90
21666;DHT22;10994;45.486;9.190;2022-07-24T00:56:43;29.10;99.90
21666;DHT22;10994;45.486;9.190;2022-07-24T00:59:10;29.10;99.90
21666;DHT22;10994;45.486;9.190;2022-07-24T01:01:36;29.00;99.90
21666;DHT22;10994;45.486;9.190;2022-07-24T01:04:01;29.00;99.90
21666;DHT22;10994;45.486;9.190;2022-07-24T01:06:27;29.00;99.90
21666;DHT22;10994;45.486;9.190;2022-07-24T01:08:53;29.20;99.90
21666;DHT22;10994;45.486;9.190;2022-07-24T01:11:19;29.20;99.90
21666;DHT22;10994;45.486;9.190;2022-07-24T01:13:47;29.20;99.90
21666;DHT22;10994;45.486;9.190;2022-07-24T01:16:14;29.30;99.90
21666;DHT22;10994;45.486;9.190;2022-07-24T01:18:40;29.30;99.90
21666;DHT22;10994;45.486;9.190;2022-07-24T01:21:06;29.30;99.90
21666;DHT22;10994;45.486;9.190;2022-07-24T01:23:32;29.30;99.90
21666;DHT22;10994;45.486;9.190;2022-07-24T01:25:58;29.20;99.90
21666;DHT22;10994;45.486;9.190;2022-07-24T01:28:23;29.20;99.90
21666;DHT22;10994;45.486;9.190;2022-07-24T01:30:49;29.20;99.90
21666;DHT22;10994;45.486;9.190;2022-07-24T01:33:15;29.30;99.90
21666;DHT22;10994;45.486;9.190;2022-07-24T01:35:42;29.20;99.90
21666;DHT22;10994;45.486;9.190;2022-07-24T01:38:09;29.20;99.90
21666;DHT22;10994;45.486;9.190;2022-07-24T01:40:34;29.30;99.90
21666;DHT22;10994;45.486;9.190;2022-07-24T01:43:00;29.30;99.90
21666;DHT22;10994;45.486;9.190;2022-07-24T01:45:26;29.30;99.90
21666;DHT22;10994;45.486;9.190;2022-07-24T01:47:52;29.30;99.90
21666;DHT22;10994;45.486;9.190;2022-07-24T01:50:18;29.30;99.90
21666;DHT22;10994;45.486;9.190;2022-07-24T01:52:43;29.30;99.90
21666;DHT22;10994;45.486;9.190;2022-07-24T01:55:09;29.30;99.90
21666;DHT22;10994;45.486;9.190;2022-07-24T01:57:35;29.20;99.90
21666;DHT22;10994;45.486;9.190;2022-07-24T02:00:01;29.20;99.90
21666;DHT22;10994;45.486;9.190;2022-07-24T02:02:40;29.20;99.90
21666;DHT22;10994;45.486;9.190;2022-07-24T02:05:06;29.20;99.90
21666;DHT22;10994;45.486;9.190;2022-07-24T02:07:32;29.20;99.90
21666;DHT22;10994;45.486;9.190;2022-07-24T02:09:58;29.20;99.90
21666;DHT22;10994;45.486;9.190;2022-07-24T02:12:24;29.30;99.90
21666;DHT22;10994;45.486;9.190;2022-07-24T02:14:49;29.30;99.90
21666;DHT22;10994;45.486;9.190;2022-07-24T02:17:15;29.20;99.90
21666;DHT22;10994;45.486;9.190;2022-07-24T02:19:41;29.20;99.90
21666;DHT22;10994;45.486;9.190;2022-07-24T02:22:06;29.10;99.90
21666;DHT22;10994;45.486;9.190;2022-07-24T02:24:32;29.20;99.90
21666;DHT22;10994;45.486;9.190;2022-07-24T02:26:57;29.20;99.90
21666;DHT22;10994;45.486;9.190;2022-07-24T02:29:23;29.20;99.90
21666;DHT22;10994;45.486;9.190;2022-07-24T02:31:49;29.20;99.90
21666;DHT22;10994;45.486;9.190;2022-07-24T02:34:14;29.20;99.90
21666;DHT22;10994;45.486;9.190;2022-07-24T02:36:40;29.20;99.90
21666;DHT22;10994;45.486;9.190;2022-07-24T02:39:06;29.20;99.90
21666;DHT22;10994;45.486;9.190;2022-07-24T02:41:31;29.10;99.90
21666;DHT22;10994;45.486;9.190;2022-07-24T02:43:57;29.20;99.90
21666;DHT22;10994;45.486;9.190;2022-07-24T02:46:23;29.10;99.90
21666;DHT22;10994;45.486;9.190;2022-07-24T02:48:48;29.00;99.90
21666;DHT22;10994;45.486;9.190;2022-07-24T02:51:14;29.10;99.90
21666;DHT22;10994;45.486;9.190;2022-07-24T02:53:40;29.20;99.90
21666;DHT22;10994;45.486;9.190;2022-07-24T02:56:06;29.20;99.90
21666;DHT22;10994;45.486;9.190;2022-07-24T02:58:31;29.20;99.90
21666;DHT22;10994;45.486;9.190;2022-07-24T03:00:57;29.20;99.90
21666;DHT22;10994;45.486;9.190;2022-07-24T03:03:23;29.20;99.90
21666;DHT22;10994;45.486;9.190;2022-07-24T03:05:49;29.30;99.90
21666;DHT22;10994;45.486;9.190;2022-07-24T03:08:14;29.20;99.90
21666;DHT22;10994;45.486;9.190;2022-07-24T03:10:40;29.20;99.90
21666;DHT22;10994;45.486;9.190;2022-07-24T03:13:06;29.30;99.90
21666;DHT22;10994;45.486;9.190;2022-07-24T03:15:32;29.30;99.90
21666;DHT22;10994;45.486;9.190;2022-07-24T03:17:57;29.30;99.90
21666;DHT22;10994;45.486;9.190;2022-07-24T03:20:25;29.30;99.90
21666;DHT22;10994;45.486;9.190;2022-07-24T03:22:51;29.40;99.90
21666;DHT22;10994;45.486;9.190;2022-07-24T03:25:18;29.30;99.90
21666;DHT22;10994;45.486;9.190;2022-07-24T03:27:43;29.40;99.90
21666;DHT22;10994;45.486;9.190;2022-07-24T03:30:11;29.30;99.90
21666;DHT22;10994;45.486;9.190;2022-07-24T03:32:36;29.30;99.90
21666;DHT22;10994;45.486;9.190;2022-07-24T03:35:03;29.40;99.90
21666;DHT22;10994;45.486;9.190;2022-07-24T03:37:29;29.30;99.90
21666;DHT22;10994;45.486;9.190;2022-07-24T03:39:55;29.30;99.90
21666;DHT22;10994;45.486;9.190;2022-07-24T03:42:20;29.30;99.90
21666;DHT22;10994;45.486;9.190;2022-07-24T03:44:46;29.10;99.90
21666;DHT22;10994;45.486;9.190;2022-07-24T03:47:12;29.10;99.90
21666;DHT22;10994;45.486;9.190;2022-07-24T03:49:37;29.00;99.90
21666;DHT22;10994;45.486;9.190;2022-07-24T03:52:03;29.00;99.90
21666;DHT22;10994;45.486;9.190;2022-07-24T03:54:29;29.10;99.90
21666;DHT22;10994;45.486;9.190;2022-07-24T03:56:55;29.20;99.90
21666;DHT22;10994;45.486;9.190;2022-07-24T03:59:21;29.20;99.90
21666;DHT22;10994;45.486;9.190;2022-07-24T04:01:46;29.30;99.90
21666;DHT22;10994;45.486;9.190;2022-07-24T04:04:12;29.30;99.90
21666;DHT22;10994;45.486;9.190;2022-07-24T04:06:38;29.40;99.90
21666;DHT22;10994;45.486;9.190;2022-07-24T04:09:06;29.40;99.90
21666;DHT22;10994;45.486;9.190;2022-07-24T04:11:32;29.30;99.90
21666;DHT22;10994;45.486;9.190;2022-07-24T04:13:58;29.30;99.90
21666;DHT22;10994;45.486;9.190;2022-07-24T04:16:24;29.20;99.90
21666;DHT22;10994;45.486;9.190;2022-07-24T04:18:50;29.20;99.90
21666;DHT22;10994;45.486;9.190;2022-07-24T04:21:16;29.20;99.90
21666;DHT22;10994;45.486;9.190;2022-07-24T04:23:42;29.10;99.90
21666;DHT22;10994;45.486;9.190;2022-07-24T04:26:10;29.20;99.90
21666;DHT22;10994;45.486;9.190;2022-07-24T04:28:36;29.20;99.90
21666;DHT22;10994;45.486;9.190;2022-07-24T04:31:02;29.20;99.90
21666;DHT22;10994;45.486;9.190;2022-07-24T04:33:28;29.20;99.90
21666;DHT22;10994;45.486;9.190;2022-07-24T04:35:54;29.30;99.90
21666;DHT22;10994;45.486;9.190;2022-07-24T04:38:20;29.20;99.90
21666;DHT22;10994;45.486;9.190;2022-07-24T04:40:45;29.10;99.90
21666;DHT22;10994;45.486;9.190;2022-07-24T04:43:11;29.20;99.90
21666;DHT22;10994;45.486;9.190;2022-07-24T04:45:37;29.20;99.90
21666;DHT22;10994;45.486;9.190;2022-07-24T04:48:03;29.10;99.90
21666;DHT22;10994;45.486;9.190;2022-07-24T04:50:29;29.10;99.90
21666;DHT22;10994;45.486;9.190;2022-07-24T04:52:55;29.10;99.90
21666;DHT22;10994;45.486;9.190;2022-07-24T04:55:20;29.20;99.90
21666;DHT22;10994;45.486;9.190;2022-07-24T04:57:46;29.30;99.90
21666;DHT22;10994;45.486;9.190;2022-07-24T05:00:13;29.40;99.90
21666;DHT22;10994;45.486;9.190;2022-07-24T05:02:39;29.50;99.90
21666;DHT22;10994;45.486;9.190;2022-07-24T05:05:05;29.60;99.90
21666;DHT22;10994;45.486;9.190;2022-07-24T05:07:31;29.60;99.90
21666;DHT22;10994;45.486;9.190;2022-07-24T05:09:57;29.60;99.90
21666;DHT22;10994;45.486;9.190;2022-07-24T05:12:24;29.60;99.90
21666;DHT22;10994;45.486;9.190;2022-07-24T05:14:49;29.50;99.90
21666;DHT22;10994;45.486;9.190;2022-07-24T05:17:15;29.40;99.90
21666;DHT22;10994;45.486;9.190;2022-07-24T05:19:41;29.50;99.90
21666;DHT22;10994;45.486;9.190;2022-07-24T05:22:06;29.60;99.90
21666;DHT22;10994;45.486;9.190;2022-07-24T05:24:32;29.60;99.90
21666;DHT22;10994;45.486;9.190;2022-07-24T05:26:58;29.50;99.90
21666;DHT22;10994;45.486;9.190;2022-07-24T05:29:23;29.50;99.90
21666;DHT22;10994;45.486;9.190;2022-07-24T05:31:49;29.50;99.90
21666;DHT22;10994;45.486;9.190;2022-07-24T05:34:17;29.50;99.90
21666;DHT22;10994;45.486;9.190;2022-07-24T05:36:42;29.50;99.90
21666;DHT22;10994;45.486;9.190;2022-07-24T05:39:08;29.50;99.90
21666;DHT22;10994;45.486;9.190;2022-07-24T05:41:34;29.50;99.90
21666;DHT22;10994;45.486;9.190;2022-07-24T05:44:00;29.50;99.90
21666;DHT22;10994;45.486;9.190;2022-07-24T05:46:25;29.50;99.90
21666;DHT22;10994;45.486;9.190;2022-07-24T05:48:51;29.50;99.90
21666;DHT22;10994;45.486;9.190;2022-07-24T05:51:17;29.50;99.90
21666;DHT22;10994;45.486;9.190;2022-07-24T05:53:42;29.50;99.90
21666;DHT22;10994;45.486;9.190;2022-07-24T05:56:08;29.50;99.90
21666;DHT22;10994;45.486;9.190;2022-07-24T05:58:34;29.60;99.90
21666;DHT22;10994;45.486;9.190;2022-07-24T06:01:00;29.60;99.90
21666;DHT22;10994;45.486;9.190;2022-07-24T06:03:26;29.40;99.90
21666;DHT22;10994;45.486;9.190;2022-07-24T06:05:52;29.30;99.90
21666;DHT22;10994;45.486;9.190;2022-07-24T06:08:17;29.30;99.90
21666;DHT22;10994;45.486;9.190;2022-07-24T06:10:43;29.50;99.90
21666;DHT22;10994;45.486;9.190;2022-07-24T06:13:09;29.40;99.90
21666;DHT22;10994;45.486;9.190;2022-07-24T06:15:34;29.40;99.90
21666;DHT22;10994;45.486;9.190;2022-07-24T06:18:00;29.30;99.90
21666;DHT22;10994;45.486;9.190;2022-07-24T06:20:26;29.50;99.90
21666;DHT22;10994;45.486;9.190;2022-07-24T06:22:51;29.60;99.90
21666;DHT22;10994;45.486;9.190;2022-07-24T06:25:17;29.50;99.90
21666;DHT22;10994;45.486;9.190;2022-07-24T06:27:49;29.50;99.90
21666;DHT22;10994;45.486;9.190;2022-07-24T06:30:17;29.50;99.90
21666;DHT22;10994;45.486;9.190;2022-07-24T06:32:43;29.60;99.90
21666;DHT22;10994;45.486;9.190;2022-07-24T06:35:10;29.80;99.90
21666;DHT22;10994;45.486;9.190;2022-07-24T06:37:36;29.90;99.90
21666;DHT22;10994;45.486;9.190;2022-07-24T06:40:02;29.90;99.90
21666;DHT22;10994;45.486;9.190;2022-07-24T06:42:28;29.90;99.90
21666;DHT22;10994;45.486;9.190;2022-07-24T06:44:54;29.90;99.90
21666;DHT22;10994;45.486;9.190;2022-07-24T06:47:19;29.90;99.90
21666;DHT22;10994;45.486;9.190;2022-07-24T06:49:45;30.00;99.90
21666;DHT22;10994;45.486;9.190;2022-07-24T06:52:11;30.00;99.90
21666;DHT22;10994;45.486;9.190;2022-07-24T06:54:37;29.90;99.90
21666;DHT22;10994;45.486;9.190;2022-07-24T06:57:03;29.90;99.90
21666;DHT22;10994;45.486;9.190;2022-07-24T06:59:29;29.90;99.90
21666;DHT22;10994;45.486;9.190;2022-07-24T07:02:03;30.00;99.90
21666;DHT22;10994;45.486;9.190;2022-07-24T07:04:29;30.10;99.90
21666;DHT22;10994;45.486;9.190;2022-07-24T07:06:55;30.10;99.90
21666;DHT22;10994;45.486;9.190;2022-07-24T07:09:20;30.00;99.90
21666;DHT22;10994;45.486;9.190;2022-07-24T07:11:46;30.00;99.90
21666;DHT22;10994;45.486;9.190;2022-07-24T07:14:12;29.90;99.90
21666;DHT22;10994;45.486;9.190;2022-07-24T07:16:38;30.00;99.90
21666;DHT22;10994;45.486;9.190;2022-07-24T07:19:03;30.10;99.90
21666;DHT22;10994;45.486;9.190;2022-07-24T07:21:29;30.30;99.90
21666;DHT22;10994;45.486;9.190;2022-07-24T07:23:55;30.50;99.90
21666;DHT22;10994;45.486;9.190;2022-07-24T07:26:23;30.60;99.90
21666;DHT22;10994;45.486;9.190;2022-07-24T07:28:52;30.80;99.90
21666;DHT22;10994;45.486;9.190;2022-07-24T07:31:17;30.90;99.90
21666;DHT22;10994;45.486;9.190;2022-07-24T07:33:43;30.80;99.90
21666;DHT22;10994;45.486;9.190;2022-07-24T07:36:09;30.80;99.90
21666;DHT22;10994;45.486;9.190;2022-07-24T07:38:35;30.80;99.90
21666;DHT22;10994;45.486;9.190;2022-07-24T07:41:04;30.90;99.90
21666;DHT22;10994;45.486;9.190;2022-07-24T07:43:30;30.80;99.90
21666;DHT22;10994;45.486;9.190;2022-07-24T07:45:56;31.00;99.90
21666;DHT22;10994;45.486;9.190;2022-07-24T07:48:22;31.10;99.90
21666;DHT22;10994;45.486;9.190;2022-07-24T07:50:47;31.10;99.90
21666;DHT22;10994;45.486;9.190;2022-07-24T07:53:13;31.00;99.90
21666;DHT22;10994;45.486;9.190;2022-07-24T07:55:39;31.00;99.90
21666;DHT22;10994;45.486;9.190;2022-07-24T07:58:05;30.70;99.90
21666;DHT22;10994;45.486;9.190;2022-07-24T08:00:31;30.50;99.90
21666;DHT22;10994;45.486;9.190;2022-07-24T08:02:57;30.60;99.90
21666;DHT22;10994;45.486;9.190;2022-07-24T08:05:23;30.80;99.90
21666;DHT22;10994;45.486;9.190;2022-07-24T08:07:49;30.80;99.90
21666;DHT22;10994;45.486;9.190;2022-07-24T08:10:14;30.90;99.90
21666;DHT22;10994;45.486;9.190;2022-07-24T08:12:40;30.90;99.90
21666;DHT22;10994;45.486;9.190;2022-07-24T08:15:08;30.90;99.90
21666;DHT22;10994;45.486;9.190;2022-07-24T08:17:37;31.20;99.90
21666;DHT22;10994;45.486;9.190;2022-07-24T08:20:04;31.00;99.90
21666;DHT22;10994;45.486;9.190;2022-07-24T08:22:30;31.20;99.90
21666;DHT22;10994;45.486;9.190;2022-07-24T08:24:56;31.40;99.90
21666;DHT22;10994;45.486;9.190;2022-07-24T08:27:21;31.60;99.90
21666;DHT22;10994;45.486;9.190;2022-07-24T08:29:47;31.80;99.90
21666;DHT22;10994;45.486;9.190;2022-07-24T08:32:13;31.80;99.90
21666;DHT22;10994;45.486;9.190;2022-07-24T08:34:38;31.80;99.90
21666;DHT22;10994;45.486;9.190;2022-07-24T08:37:07;31.90;99.90
21666;DHT22;10994;45.486;9.190;2022-07-24T08:39:32;31.90;99.90
21666;DHT22;10994;45.486;9.190;2022-07-24T08:41:58;31.80;99.90
21666;DHT22;10994;45.486;9.190;2022-07-24T08:44:24;31.70;99.90
21666;DHT22;10994;45.486;9.190;2022-07-24T08:46:53;31.70;99.90
21666;DHT22;10994;45.486;9.190;2022-07-24T08:49:22;31.50;99.90
21666;DHT22;10994;45.486;9.190;2022-07-24T08:51:51;31.60;99.90
21666;DHT22;10994;45.486;9.190;2022-07-24T08:54:20;31.60;99.90
21666;DHT22;10994;45.486;9.190;2022-07-24T08:56:45;31.50;99.90
21666;DHT22;10994;45.486;9.190;2022-07-24T08:59:19;31.60;99.90
21666;DHT22;10994;45.486;9.190;2022-07-24T09:01:47;31.80;99.90
21666;DHT22;10994;45.486;9.190;2022-07-24T09:04:32;31.90;99.90
21666;DHT22;10994;45.486;9.190;2022-07-24T09:07:01;31.80;99.90
21666;DHT22;10994;45.486;9.190;2022-07-24T09:09:26;31.70;99.90
21666;DHT22;10994;45.486;9.190;2022-07-24T09:12:09;31.80;99.90
21666;DHT22;10994;45.486;9.190;2022-07-24T09:14:44;31.70;99.90
21666;DHT22;10994;45.486;9.190;2022-07-24T09:17:15;31.80;99.90
21666;DHT22;10994;45.486;9.190;2022-07-24T09:19:54;32.00;99.90
21666;DHT22;10994;45.486;9.190;2022-07-24T09:22:40;32.00;99.90
21666;DHT22;10994;45.486;9.190;2022-07-24T09:25:22;32.00;99.90
21666;DHT22;10994;45.486;9.190;2022-07-24T09:27:56;32.00;99.90
21666;DHT22;10994;45.486;9.190;2022-07-24T09:30:36;31.90;99.90
21666;DHT22;10994;45.486;9.190;2022-07-24T09:33:17;32.00;99.90
21666;DHT22;10994;45.486;9.190;2022-07-24T09:35:48;32.20;99.90
21666;DHT22;10994;45.486;9.190;2022-07-24T09:38:18;32.10;99.90
21666;DHT22;10994;45.486;9.190;2022-07-24T09:40:51;32.20;99.90
21666;DHT22;10994;45.486;9.190;2022-07-24T09:43:23;32.40;99.90
21666;DHT22;10994;45.486;9.190;2022-07-24T09:46:08;32.50;99.90
21666;DHT22;10994;45.486;9.190;2022-07-24T09:48:35;32.80;99.90
21666;DHT22;10994;45.486;9.190;2022-07-24T09:51:09;32.90;99.90
21666;DHT22;10994;45.486;9.190;2022-07-24T09:53:39;32.80;99.90
21666;DHT22;10994;45.486;9.190;2022-07-24T09:58:40;32.60;99.90
21666;DHT22;10994;45.486;9.190;2022-07-24T10:01:15;32.50;99.90
21666;DHT22;10994;45.486;9.190;2022-07-24T10:03:43;32.50;99.90
21666;DHT22;10994;45.486;9.190;2022-07-24T10:06:16;32.60;99.90
21666;DHT22;10994;45.486;9.190;2022-07-24T10:08:45;32.80;99.90
21666;DHT22;10994;45.486;9.190;2022-07-24T10:11:12;33.10;99.90
21666;DHT22;10994;45.486;9.190;2022-07-24T10:13:38;33.30;99.90
21666;DHT22;10994;45.486;9.190;2022-07-24T10:18:46;33.50;99.90
21666;DHT22;10994;45.486;9.190;2022-07-24T10:21:25;33.70;99.90
21666;DHT22;10994;45.486;9.190;2022-07-24T10:26:35;33.50;99.90
21666;DHT22;10994;45.486;9.190;2022-07-24T10:29:21;33.50;99.90
21666;DHT22;10994;45.486;9.190;2022-07-24T10:31:52;33.60;99.90
21666;DHT22;10994;45.486;9.190;2022-07-24T10:34:33;33.80;99.90
21666;DHT22;10994;45.486;9.190;2022-07-24T10:45:44;33.80;99.90
21666;DHT22;10994;45.486;9.190;2022-07-24T10:53:28;33.60;99.90
21666;DHT22;10994;45.486;9.190;2022-07-24T10:59:09;33.30;99.90
21666;DHT22;10994;45.486;9.190;2022-07-24T11:01:47;33.60;99.90
21666;DHT22;10994;45.486;9.190;2022-07-24T11:07:11;33.60;99.90
21666;DHT22;10994;45.486;9.190;2022-07-24T11:10:04;33.50;99.90
21666;DHT22;10994;45.486;9.190;2022-07-24T11:12:38;33.80;99.90
21666;DHT22;10994;45.486;9.190;2022-07-24T11:15:07;34.10;99.90
21666;DHT22;10994;45.486;9.190;2022-07-24T11:17:54;33.80;99.90
21666;DHT22;10994;45.486;9.190;2022-07-24T11:20:21;34.00;99.90
21666;DHT22;10994;45.486;9.190;2022-07-24T11:22:55;34.10;99.90
21666;DHT22;10994;45.486;9.190;2022-07-24T11:25:23;34.10;99.90
21666;DHT22;10994;45.486;9.190;2022-07-24T11:27:54;34.30;99.90
21666;DHT22;10994;45.486;9.190;2022-07-24T11:30:29;34.30;99.90
21666;DHT22;10994;45.486;9.190;2022-07-24T11:32:56;34.00;99.90
21666;DHT22;10994;45.486;9.190;2022-07-24T11:35:33;33.90;99.90
21666;DHT22;10994;45.486;9.190;2022-07-24T11:38:08;34.10;99.90
21666;DHT22;10994;45.486;9.190;2022-07-24T11:40:35;34.50;99.90
21666;DHT22;10994;45.486;9.190;2022-07-24T11:43:04;34.70;99.90
21666;DHT22;10994;45.486;9.190;2022-07-24T11:45:30;34.80;99.90
21666;DHT22;10994;45.486;9.190;2022-07-24T11:47:56;35.00;99.90
21666;DHT22;10994;45.486;9.190;2022-07-24T11:50:24;35.20;99.90
21666;DHT22;10994;45.486;9.190;2022-07-24T11:52:50;35.00;99.90
21666;DHT22;10994;45.486;9.190;2022-07-24T11:55:19;35.00;99.90
21666;DHT22;10994;45.486;9.190;2022-07-24T11:57:53;35.20;99.90
21666;DHT22;10994;45.486;9.190;2022-07-24T12:00:22;35.30;99.90
21666;DHT22;10994;45.486;9.190;2022-07-24T12:02:52;35.10;99.90
21666;DHT22;10994;45.486;9.190;2022-07-24T12:05:30;35.20;99.90
21666;DHT22;10994;45.486;9.190;2022-07-24T12:07:57;35.00;99.90
21666;DHT22;10994;45.486;9.190;2022-07-24T12:10:23;35.00;99.90
21666;DHT22;10994;45.486;9.190;2022-07-24T12:12:51;35.00;99.90
21666;DHT22;10994;45.486;9.190;2022-07-24T12:15:17;35.20;99.90
21666;DHT22;10994;45.486;9.190;2022-07-24T12:20:37;35.50;99.90
21666;DHT22;10994;45.486;9.190;2022-07-24T12:23:07;35.80;99.90
21666;DHT22;10994;45.486;9.190;2022-07-24T12:25:34;35.90;99.90
21666;DHT22;10994;45.486;9.190;2022-07-24T12:30:31;36.10;99.90
21666;DHT22;10994;45.486;9.190;2022-07-24T12:32:58;35.80;99.90
21666;DHT22;10994;45.486;9.190;2022-07-24T12:35:24;35.50;99.90
21666;DHT22;10994;45.486;9.190;2022-07-24T12:37:52;35.40;99.90
21666;DHT22;10994;45.486;9.190;2022-07-24T12:40:37;35.20;99.90
21666;DHT22;10994;45.486;9.190;2022-07-24T12:43:10;35.00;99.90
21666;DHT22;10994;45.486;9.190;2022-07-24T12:45:40;35.30;99.90
21666;DHT22;10994;45.486;9.190;2022-07-24T12:48:20;35.20;99.90
21666;DHT22;10994;45.486;9.190;2022-07-24T12:51:02;35.50;99.90
21666;DHT22;10994;45.486;9.190;2022-07-24T12:53:32;35.90;99.90
21666;DHT22;10994;45.486;9.190;2022-07-24T13:01:19;36.10;99.90
21666;DHT22;10994;45.486;9.190;2022-07-24T13:04:00;36.30;99.90
21666;DHT22;10994;45.486;9.190;2022-07-24T13:09:06;36.20;99.90
21666;DHT22;10994;45.486;9.190;2022-07-24T13:11:37;35.90;99.90
21666;DHT22;10994;45.486;9.190;2022-07-24T13:14:04;35.60;99.90
21666;DHT22;10994;45.486;9.190;2022-07-24T13:16:31;35.90;99.90
21666;DHT22;10994;45.486;9.190;2022-07-24T13:18:59;36.40;99.90
21666;DHT22;10994;45.486;9.190;2022-07-24T13:21:25;36.60;99.90
21666;DHT22;10994;45.486;9.190;2022-07-24T13:23:54;36.40;99.90
21666;DHT22;10994;45.486;9.190;2022-07-24T13:26:20;35.90;99.90
21666;DHT22;10994;45.486;9.190;2022-07-24T13:28:46;35.80;99.90
21666;DHT22;10994;45.486;9.190;2022-07-24T13:31:12;35.90;99.90
21666;DHT22;10994;45.486;9.190;2022-07-24T13:33:38;36.10;99.90
21666;DHT22;10994;45.486;9.190;2022-07-24T13:36:04;36.20;99.90
21666;DHT22;10994;45.486;9.190;2022-07-24T13:38:30;36.00;99.90
21666;DHT22;10994;45.486;9.190;2022-07-24T13:40:56;36.00;99.90
21666;DHT22;10994;45.486;9.190;2022-07-24T13:43:22;36.20;99.90
21666;DHT22;10994;45.486;9.190;2022-07-24T13:45:54;36.10;99.90
21666;DHT22;10994;45.486;9.190;2022-07-24T13:48:20;36.10;99.90
21666;DHT22;10994;45.486;9.190;2022-07-24T13:50:58;36.00;99.90
21666;DHT22;10994;45.486;9.190;2022-07-24T13:53:26;36.30;99.90
21666;DHT22;10994;45.486;9.190;2022-07-24T13:55:52;36.30;99.90
21666;DHT22;10994;45.486;9.190;2022-07-24T13:58:17;36.00;99.90
21666;DHT22;10994;45.486;9.190;2022-07-24T14:00:43;35.80;99.90
21666;DHT22;10994;45.486;9.190;2022-07-24T14:03:09;35.80;99.90
21666;DHT22;10994;45.486;9.190;2022-07-24T14:05:35;35.70;99.90
21666;DHT22;10994;45.486;9.190;2022-07-24T14:08:01;35.70;99.90
21666;DHT22;10994;45.486;9.190;2022-07-24T14:10:29;35.60;99.90
21666;DHT22;10994;45.486;9.190;2022-07-24T14:12:55;35.70;99.90
21666;DHT22;10994;45.486;9.190;2022-07-24T14:15:21;35.90;99.90
21666;DHT22;10994;45.486;9.190;2022-07-24T14:17:46;36.10;99.90
21666;DHT22;10994;45.486;9.190;2022-07-24T14:20:12;36.10;99.90
21666;DHT22;10994;45.486;9.190;2022-07-24T14:22:40;36.30;99.90
21666;DHT22;10994;45.486;9.190;2022-07-24T14:25:08;36.60;99.90
21666;DHT22;10994;45.486;9.190;2022-07-24T14:27:34;36.60;99.90
21666;DHT22;10994;45.486;9.190;2022-07-24T14:30:00;36.70;99.90
21666;DHT22;10994;45.486;9.190;2022-07-24T14:32:26;36.90;99.90
21666;DHT22;10994;45.486;9.190;2022-07-24T14:34:54;37.00;99.90
21666;DHT22;10994;45.486;9.190;2022-07-24T14:37:20;37.20;99.90
21666;DHT22;10994;45.486;9.190;2022-07-24T14:39:46;37.10;99.90
21666;DHT22;10994;45.486;9.190;2022-07-24T14:42:11;36.70;99.90
21666;DHT22;10994;45.486;9.190;2022-07-24T14:44:37;36.90;99.90
21666;DHT22;10994;45.486;9.190;2022-07-24T14:47:04;37.10;99.90
21666;DHT22;10994;45.486;9.190;2022-07-24T14:49:32;36.60;99.90
21666;DHT22;10994;45.486;9.190;2022-07-24T14:51:58;36.30;99.90
21666;DHT22;10994;45.486;9.190;2022-07-24T14:54:25;36.00;99.90
21666;DHT22;10994;45.486;9.190;2022-07-24T14:56:53;36.10;99.90
21666;DHT22;10994;45.486;9.190;2022-07-24T14:59:19;36.20;99.90
21666;DHT22;10994;45.486;9.190;2022-07-24T15:01:44;36.30;99.90
21666;DHT22;10994;45.486;9.190;2022-07-24T15:04:10;36.20;99.90
21666;DHT22;10994;45.486;9.190;2022-07-24T15:06:36;36.20;99.90
21666;DHT22;10994;45.486;9.190;2022-07-24T15:09:04;36.20;99.90
21666;DHT22;10994;45.486;9.190;2022-07-24T15:11:30;36.10;99.90
21666;DHT22;10994;45.486;9.190;2022-07-24T15:13:55;36.00;99.90
21666;DHT22;10994;45.486;9.190;2022-07-24T15:16:21;35.80;99.90
21666;DHT22;10994;45.486;9.190;2022-07-24T15:18:47;35.80;99.90
21666;DHT22;10994;45.486;9.190;2022-07-24T15:21:12;35.70;99.90
21666;DHT22;10994;45.486;9.190;2022-07-24T15:23:38;35.80;99.90
21666;DHT22;10994;45.486;9.190;2022-07-24T15:26:04;35.80;99.90
21666;DHT22;10994;45.486;9.190;2022-07-24T15:28:31;36.00;99.90
21666;DHT22;10994;45.486;9.190;2022-07-24T15:30:57;36.00;99.90
21666;DHT22;10994;45.486;9.190;2022-07-24T15:33:22;36.10;99.90
21666;DHT22;10994;45.486;9.190;2022-07-24T15:35:48;36.10;99.90
21666;DHT22;10994;45.486;9.190;2022-07-24T15:38:14;35.80;99.90
21666;DHT22;10994;45.486;9.190;2022-07-24T15:40:40;35.80;99.90
21666;DHT22;10994;45.486;9.190;2022-07-24T15:43:06;36.10;99.90
21666;DHT22;10994;45.486;9.190;2022-07-24T15:45:31;35.80;99.90
21666;DHT22;10994;45.486;9.190;2022-07-24T15:47:57;35.90;99.90
21666;DHT22;10994;45.486;9.190;2022-07-24T15:50:23;36.10;99.90
21666;DHT22;10994;45.486;9.190;2022-07-24T15:52:49;36.10;99.90
21666;DHT22;10994;45.486;9.190;2022-07-24T15:55:14;36.00;99.90
21666;DHT22;10994;45.486;9.190;2022-07-24T15:57:41;35.80;99.90
21666;DHT22;10994;45.486;9.190;2022-07-24T16:00:08;35.80;99.90
21666;DHT22;10994;45.486;9.190;2022-07-24T16:02:34;35.30;99.90
21666;DHT22;10994;45.486;9.190;2022-07-24T16:05:05;35.30;99.90
21666;DHT22;10994;45.486;9.190;2022-07-24T16:07:32;35.50;99.90
21666;DHT22;10994;45.486;9.190;2022-07-24T16:09:57;35.60;99.90
21666;DHT22;10994;45.486;9.190;2022-07-24T16:12:24;35.40;99.90